createdAt,value
2023-08-23T00:02:35.708Z,100492.72
2023-08-23T00:05:39.214Z,100486.81
2023-08-23T00:08:42.250Z,100480.38
2023-08-23T00:11:45.694Z,100481.03
2023-08-23T00:14:49.026Z,100486.66
2023-08-23T00:17:52.437Z,100477.56
2023-08-23T00:20:55.568Z,100466.03
2023-08-23T00:23:59.069Z,100471.03
2023-08-23T00:27:02.180Z,100461.41
2023-08-23T00:30:06.514Z,100462.72
2023-08-23T00:33:09.988Z,100471.81
2023-08-23T00:36:14.148Z,100477.56
2023-08-23T00:39:17.441Z,100482.53
2023-08-23T00:42:20.783Z,100482.53
2023-08-23T00:45:24.062Z,100456.38
2023-08-23T00:48:27.523Z,100463.44
2023-08-23T00:51:31.337Z,100466.50
2023-08-23T00:54:34.979Z,100472.06
2023-08-23T00:57:38.348Z,100466.03
2023-08-23T01:00:42.771Z,100468.38
2023-08-23T01:03:45.876Z,100469.69
2023-08-23T01:06:59.306Z,100461.03
2023-08-23T01:10:11.815Z,100464.81
2023-08-23T01:13:23.500Z,100454.50
2023-08-23T01:16:26.978Z,100453.41
2023-08-23T01:19:51.493Z,100449.81
2023-08-23T01:22:56.865Z,100443.13
2023-08-23T01:26:02.516Z,100449.66
2023-08-23T01:29:05.864Z,100452.31
2023-08-23T01:32:15.688Z,100454.75
2023-08-23T01:35:25.470Z,100449.59
2023-08-23T01:38:31.409Z,100458.81
2023-08-23T01:41:36.052Z,100456.66
2023-08-23T01:44:44.504Z,100448.69
2023-08-23T01:47:48.070Z,100455.06
2023-08-23T01:50:53.549Z,100451.34
2023-08-23T01:53:56.769Z,100447.50
2023-08-23T01:57:00.593Z,100445.06
2023-08-23T02:00:04.786Z,100444.22
2023-08-23T02:03:17.352Z,100434.41
2023-08-23T02:06:20.881Z,100438.62
2023-08-23T02:09:23.966Z,100432.88
2023-08-23T02:12:27.250Z,100435.78
2023-08-23T02:15:30.359Z,100419.38
2023-08-23T02:18:33.692Z,100433.66
2023-08-23T02:21:37.447Z,100438.72
2023-08-23T02:24:40.839Z,100435.25
2023-08-23T02:27:44.657Z,100431.81
2023-08-23T02:30:49.339Z,100425.06
2023-08-23T02:33:52.742Z,100427.97
2023-08-23T02:36:56.241Z,100423.94
2023-08-23T02:39:59.552Z,100411.97
2023-08-23T02:43:03.268Z,100415.00
2023-08-23T02:46:08.174Z,100420.78
2023-08-23T02:49:11.635Z,100417.59
2023-08-23T02:52:14.791Z,100415.88
2023-08-23T02:55:18.243Z,100422.78
2023-08-23T02:58:21.388Z,100416.72
2023-08-23T03:01:24.798Z,100423.37
2023-08-23T03:04:28.008Z,100413.56
2023-08-23T03:07:31.503Z,100418.75
2023-08-23T03:10:36.538Z,100411.25
2023-08-23T03:13:41.422Z,100412.09
2023-08-23T03:16:44.522Z,100413.56
2023-08-23T03:19:49.311Z,100417.66
2023-08-23T03:22:52.353Z,100420.53
2023-08-23T03:25:55.946Z,100426.56
2023-08-23T03:28:59.154Z,100409.13
2023-08-23T03:32:02.630Z,100412.00
2023-08-23T03:35:06.078Z,100416.50
2023-08-23T03:38:09.457Z,100410.84
2023-08-23T03:41:16.106Z,100410.69
2023-08-23T03:44:19.635Z,100407.50
2023-08-23T03:47:23.597Z,100409.84
2023-08-23T03:50:27.064Z,100408.72
2023-08-23T03:53:30.624Z,100416.22
2023-08-23T03:56:34.148Z,100412.03
2023-08-23T03:59:37.368Z,100414.06
2023-08-23T04:02:43.932Z,100407.00
2023-08-23T04:05:47.912Z,100402.81
2023-08-23T04:08:52.133Z,100398.31
2023-08-23T04:11:55.635Z,100396.44
2023-08-23T04:14:59.204Z,100401.25
2023-08-23T04:18:03.202Z,100392.84
2023-08-23T04:21:06.425Z,100382.69
2023-08-23T04:24:09.749Z,100388.91
2023-08-23T04:27:12.761Z,100377.06
2023-08-23T04:30:16.218Z,100373.88
2023-08-23T04:33:20.288Z,100373.16
2023-08-23T04:36:24.000Z,100376.31
2023-08-23T04:39:28.227Z,100382.03
2023-08-23T04:42:34.185Z,100372.75
2023-08-23T04:45:41.065Z,100374.41
2023-08-23T04:48:44.688Z,100375.72
2023-08-23T04:51:47.860Z,100376.69
2023-08-23T04:54:52.090Z,100373.38
2023-08-23T04:57:55.275Z,100348.13
2023-08-23T05:01:05.729Z,100374.72
2023-08-23T05:04:09.188Z,100385.50
2023-08-23T05:07:12.681Z,100379.59
2023-08-23T05:10:15.960Z,100385.22
2023-08-23T05:13:20.629Z,100391.34
2023-08-23T05:16:25.376Z,100385.22
2023-08-23T05:19:28.830Z,100397.41
2023-08-23T05:22:32.185Z,100396.31
2023-08-23T05:25:35.617Z,100401.84
2023-08-23T05:28:38.709Z,100396.03
2023-08-23T05:31:42.177Z,100392.53
2023-08-23T05:34:46.449Z,100381.81
2023-08-23T05:37:50.078Z,100377.38
2023-08-23T05:40:54.628Z,100382.09
2023-08-23T05:43:58.061Z,100377.84
2023-08-23T05:47:01.216Z,100378.53
2023-08-23T05:50:05.294Z,100380.34
2023-08-23T05:53:11.527Z,100394.41
2023-08-23T05:56:20.828Z,100388.41
2023-08-23T05:59:23.890Z,100398.09
2023-08-23T06:02:27.535Z,100401.59
2023-08-23T06:05:30.881Z,100395.91
2023-08-23T06:08:34.047Z,100392.53
2023-08-23T06:11:37.520Z,100393.66
2023-08-23T06:14:41.309Z,100397.84
2023-08-23T06:17:44.733Z,100400.50
2023-08-23T06:20:50.493Z,100406.97
2023-08-23T06:23:53.990Z,100404.31
2023-08-23T06:26:57.181Z,100392.91
2023-08-23T06:30:01.100Z,100390.97
2023-08-23T06:33:07.046Z,100380.59
2023-08-23T06:36:10.710Z,100382.22
2023-08-23T06:39:27.718Z,100390.50
2023-08-23T06:42:36.488Z,100383.72
2023-08-23T06:45:39.939Z,100386.13
2023-08-23T06:48:43.949Z,100384.44
2023-08-23T06:51:49.944Z,100385.25
2023-08-23T06:54:54.578Z,100388.09
2023-08-23T06:57:58.301Z,100374.75
2023-08-23T07:01:02.649Z,100389.06
2023-08-23T07:04:07.045Z,100394.09
2023-08-23T07:07:10.453Z,100393.81
2023-08-23T07:10:26.875Z,100395.91
2023-08-23T07:13:31.707Z,100392.34
2023-08-23T07:16:34.846Z,100393.97
2023-08-23T07:19:39.549Z,100381.03
2023-08-23T07:22:43.246Z,100390.25
2023-08-23T07:25:46.732Z,100394.47
2023-08-23T07:28:49.871Z,100400.72
2023-08-23T07:31:53.591Z,100407.50
2023-08-23T07:34:56.672Z,100397.50
2023-08-23T07:38:00.271Z,100397.81
2023-08-23T07:41:04.814Z,100405.41
2023-08-23T07:44:08.206Z,100401.19
2023-08-23T07:47:11.499Z,100402.31
2023-08-23T07:50:14.959Z,100399.06
2023-08-23T07:53:19.989Z,100399.56
2023-08-23T07:56:23.339Z,100411.94
2023-08-23T07:59:26.606Z,100404.94
2023-08-23T08:02:31.439Z,100415.94
2023-08-23T08:05:35.687Z,100413.78
2023-08-23T08:08:40.707Z,100412.16
2023-08-23T08:11:44.267Z,100416.87
2023-08-23T08:14:47.902Z,100414.69
2023-08-23T08:17:52.830Z,100413.31
2023-08-23T08:20:56.739Z,100412.00
2023-08-23T08:24:02.987Z,100406.63
2023-08-23T08:27:06.175Z,100400.44
2023-08-23T08:30:10.210Z,100406.41
2023-08-23T08:33:13.371Z,100393.59
2023-08-23T08:36:17.279Z,100400.59
2023-08-23T08:39:20.493Z,100396.34
2023-08-23T08:42:24.398Z,100388.16
2023-08-23T08:45:28.084Z,100383.25
2023-08-23T08:48:31.424Z,100382.78
2023-08-23T08:51:37.804Z,100383.19
2023-08-23T08:54:43.949Z,100384.25
2023-08-23T08:57:50.295Z,100390.09
2023-08-23T09:00:55.605Z,100393.19
2023-08-23T09:03:59.438Z,100390.00
2023-08-23T09:07:02.936Z,100387.75
2023-08-23T09:10:06.841Z,100385.44
2023-08-23T09:13:10.287Z,100397.09
2023-08-23T09:16:14.807Z,100385.78
2023-08-23T09:19:18.587Z,100391.81
2023-08-23T09:22:23.222Z,100377.06
2023-08-23T09:25:27.856Z,100387.09
2023-08-23T09:28:31.054Z,100373.16
2023-08-23T09:31:35.669Z,100395.81
2023-08-23T09:34:38.846Z,100377.56
2023-08-23T09:37:47.513Z,100384.38
2023-08-23T09:40:52.389Z,100373.22
2023-08-23T09:43:58.216Z,100375.00
2023-08-23T09:47:01.824Z,100380.19
2023-08-23T09:50:06.669Z,100371.34
2023-08-23T09:53:35.348Z,100370.41
2023-08-23T09:56:44.483Z,100369.78
2023-08-23T09:59:48.027Z,100373.06
2023-08-23T10:02:53.667Z,100371.56
2023-08-23T10:05:57.789Z,100375.44
2023-08-23T10:09:01.594Z,100365.94
2023-08-23T10:12:07.411Z,100374.06
2023-08-23T10:15:13.798Z,100370.38
2023-08-23T10:18:18.027Z,100365.94
2023-08-23T10:21:21.354Z,100370.91
2023-08-23T10:24:32.986Z,100361.97
2023-08-23T10:27:37.558Z,100357.09
2023-08-23T10:30:44.311Z,100356.88
2023-08-23T10:33:57.807Z,100343.16
2023-08-23T10:37:01.318Z,100349.66
2023-08-23T10:40:17.247Z,100342.47
2023-08-23T10:43:21.866Z,100347.88
2023-08-23T10:46:33.688Z,100353.81
2023-08-23T10:49:38.925Z,100360.53
2023-08-23T10:52:45.456Z,100350.75
2023-08-23T10:55:53.982Z,100345.84
2023-08-23T10:59:00.411Z,100338.78
2023-08-23T11:02:03.974Z,100347.75
2023-08-23T11:05:07.757Z,100344.16
2023-08-23T11:08:13.101Z,100339.47
2023-08-23T11:11:17.063Z,100344.69
2023-08-23T11:14:20.552Z,100331.38
2023-08-23T11:17:23.771Z,100340.22
2023-08-23T11:20:27.712Z,100332.09
2023-08-23T11:23:30.886Z,100336.63
2023-08-23T11:26:35.707Z,100333.44
2023-08-23T11:29:40.422Z,100331.25
2023-08-23T11:32:44.869Z,100326.47
2023-08-23T11:35:47.966Z,100316.81
2023-08-23T11:38:52.064Z,100311.03
2023-08-23T11:41:55.251Z,100321.78
2023-08-23T11:44:58.653Z,100309.56
2023-08-23T11:48:01.891Z,100311.97
2023-08-23T11:51:06.556Z,100302.31
2023-08-23T11:54:10.100Z,100290.47
2023-08-23T11:57:18.262Z,100294.00
2023-08-23T12:00:22.168Z,100295.72
2023-08-23T12:03:25.647Z,100303.94
2023-08-23T12:06:28.993Z,100291.31
2023-08-23T12:09:33.899Z,100281.91
2023-08-23T12:12:40.459Z,100288.13
2023-08-23T12:15:44.201Z,100287.31
2023-08-23T12:18:50.063Z,100295.34
2023-08-23T12:21:53.494Z,100295.47
2023-08-23T12:24:56.556Z,100296.84
2023-08-23T12:28:01.312Z,100289.88
2023-08-23T12:31:05.862Z,100292.25
2023-08-23T12:34:09.504Z,100297.19
2023-08-23T12:37:14.352Z,100294.91
2023-08-23T12:40:18.906Z,100289.13
2023-08-23T12:43:22.346Z,100300.09
2023-08-23T12:46:25.731Z,100295.69
2023-08-23T12:49:28.929Z,100290.25
2023-08-23T12:52:32.444Z,100285.56
2023-08-23T12:55:35.523Z,100289.88
2023-08-23T12:58:39.061Z,100286.31
2023-08-23T13:01:42.476Z,100278.41
2023-08-23T13:04:46.346Z,100271.94
2023-08-23T13:07:49.963Z,100264.13
2023-08-23T13:10:53.928Z,100268.72
2023-08-23T13:13:59.513Z,100262.94
2023-08-23T13:17:03.083Z,100264.31
2023-08-23T13:20:07.868Z,100258.97
2023-08-23T13:23:12.279Z,100259.94
2023-08-23T13:26:16.869Z,100267.53
2023-08-23T13:29:21.987Z,100261.91
2023-08-23T13:32:27.971Z,100255.69
2023-08-23T13:35:33.268Z,100259.66
2023-08-23T13:38:36.718Z,100257.50
2023-08-23T13:41:41.176Z,100267.00
2023-08-23T13:44:44.661Z,100249.53
2023-08-23T13:47:49.580Z,100260.25
2023-08-23T13:50:54.998Z,100259.84
2023-08-23T13:53:59.246Z,100254.34
2023-08-23T13:57:03.966Z,100259.84
2023-08-23T14:00:09.601Z,100248.84
2023-08-23T14:03:12.788Z,100254.37
2023-08-23T14:06:17.051Z,100259.66
2023-08-23T14:09:20.201Z,100252.06
2023-08-23T14:12:23.550Z,100263.91
2023-08-23T14:15:26.865Z,100262.72
2023-08-23T14:18:30.358Z,100268.88
2023-08-23T14:21:33.572Z,100268.22
2023-08-23T14:24:37.180Z,100284.69
2023-08-23T14:27:41.093Z,100281.59
2023-08-23T14:30:45.703Z,100286.03
2023-08-23T14:33:49.479Z,100288.81
2023-08-23T14:36:53.076Z,100279.66
2023-08-23T14:39:56.401Z,100283.78
2023-08-23T14:42:59.840Z,100290.16
2023-08-23T14:46:02.891Z,100280.91
2023-08-23T14:49:06.385Z,100295.88
2023-08-23T14:52:10.041Z,100297.47
2023-08-23T14:55:13.342Z,100302.22
2023-08-23T14:58:16.593Z,100306.84
2023-08-23T15:01:20.093Z,100309.13
2023-08-23T15:04:23.364Z,100294.84
2023-08-23T15:07:26.856Z,100306.94
2023-08-23T15:10:31.005Z,100295.47
2023-08-23T15:13:34.518Z,100305.69
2023-08-23T15:16:37.706Z,100306.03
2023-08-23T15:19:43.065Z,100312.19
2023-08-23T15:22:46.212Z,100306.44
2023-08-23T15:25:50.202Z,100315.88
2023-08-23T15:28:57.086Z,100319.47
2023-08-23T15:32:01.437Z,100319.38
2023-08-23T15:35:06.092Z,100327.12
2023-08-23T15:38:10.189Z,100323.00
2023-08-23T15:41:13.315Z,100323.59
2023-08-23T15:44:17.216Z,100325.81
2023-08-23T15:47:21.319Z,100321.16
2023-08-23T15:50:24.897Z,100310.53
2023-08-23T15:53:28.148Z,100313.38
2023-08-23T15:56:31.678Z,100306.09
2023-08-23T15:59:36.330Z,100313.31
2023-08-23T16:02:40.118Z,100319.75
2023-08-23T16:05:43.724Z,100307.81
2023-08-23T16:08:46.951Z,100304.53
2023-08-23T16:11:50.496Z,100294.91
2023-08-23T16:14:53.693Z,100291.75
2023-08-23T16:17:58.431Z,100290.91
2023-08-23T16:21:01.764Z,100284.47
2023-08-23T16:24:06.768Z,100284.53
2023-08-23T16:27:11.224Z,100279.94
2023-08-23T16:30:14.986Z,100280.03
2023-08-23T16:33:20.829Z,100275.06
2023-08-23T16:36:27.700Z,100281.59
2023-08-23T16:39:33.773Z,100283.41
2023-08-23T16:42:43.018Z,100295.13
2023-08-23T16:45:47.796Z,100291.19
2023-08-23T16:48:52.894Z,100298.16
2023-08-23T16:51:56.689Z,100290.31
2023-08-23T16:55:01.494Z,100311.81
2023-08-23T16:58:04.938Z,100302.25
2023-08-23T17:01:09.689Z,100304.69
2023-08-23T17:04:13.944Z,100309.03
2023-08-23T17:07:18.023Z,100307.41
2023-08-23T17:10:23.749Z,100297.41
2023-08-23T17:13:28.229Z,100303.66
2023-08-23T17:16:33.123Z,100307.53
2023-08-23T17:19:41.213Z,100307.34
2023-08-23T17:22:47.755Z,100308.22
2023-08-23T17:25:52.578Z,100302.66
2023-08-23T17:28:56.158Z,100304.81
2023-08-23T17:32:00.557Z,100309.91
2023-08-23T17:35:06.356Z,100319.28
2023-08-23T17:38:11.216Z,100323.31
2023-08-23T17:41:14.865Z,100314.25
2023-08-23T17:44:20.754Z,100321.66
2023-08-23T17:47:24.780Z,100329.88
2023-08-23T17:50:29.196Z,100324.78
2023-08-23T17:53:33.644Z,100337.22
2023-08-23T17:56:38.080Z,100339.19
2023-08-23T17:59:41.396Z,100345.44
2023-08-23T18:02:45.645Z,100345.69
2023-08-23T18:05:49.581Z,100345.16
2023-08-23T18:08:53.753Z,100350.44
2023-08-23T18:12:04.914Z,100361.66
2023-08-23T18:15:17.365Z,100364.69
2023-08-23T18:18:21.266Z,100374.81
2023-08-23T18:21:27.355Z,100344.00
2023-08-23T18:24:32.429Z,100398.53
2023-08-23T18:27:55.217Z,100388.88
2023-08-23T18:31:04.277Z,100391.62
2023-08-23T18:34:13.310Z,100391.62
2023-08-23T18:37:23.092Z,100411.84
2023-08-23T18:40:28.415Z,100404.81
2023-08-23T18:44:01.010Z,100417.81
2023-08-23T18:47:13.237Z,100413.13
2023-08-23T18:50:49.327Z,100423.72
2023-08-23T18:53:57.941Z,100416.97
2023-08-23T18:57:06.135Z,100414.59
2023-08-23T19:00:13.276Z,100425.81
2023-08-23T19:03:33.593Z,100431.09
2023-08-23T19:06:38.382Z,100402.06
2023-08-23T19:09:48.955Z,100436.63
2023-08-23T19:12:53.186Z,100439.22
2023-08-23T19:16:01.864Z,100454.84
2023-08-23T19:19:15.610Z,100447.25
2023-08-23T19:22:34.172Z,100454.78
2023-08-23T19:25:42.637Z,100470.16
2023-08-23T19:28:49.909Z,100457.37
2023-08-23T19:31:59.417Z,100484.19
2023-08-23T19:35:05.195Z,100481.84
2023-08-23T19:38:09.984Z,100469.16
2023-08-23T19:41:14.133Z,100492.19
2023-08-23T19:44:21.280Z,100500.56
2023-08-23T19:47:39.910Z,100509.88
2023-08-23T19:51:02.515Z,100505.88
2023-08-23T19:54:14.606Z,100516.69
2023-08-23T19:57:38.397Z,100516.81
2023-08-23T20:00:47.146Z,100534.97
2023-08-23T20:03:55.277Z,100536.03
2023-08-23T20:07:02.459Z,100537.84
2023-08-23T20:10:16.618Z,100542.00
2023-08-23T20:13:27.032Z,100541.38
2023-08-23T20:16:41.185Z,100545.50
2023-08-23T20:19:56.297Z,100551.88
2023-08-23T20:23:13.534Z,100551.38
2023-08-23T20:26:30.820Z,100551.22
2023-08-23T20:30:07.962Z,100551.75
2023-08-23T20:38:40.432Z,100528.22
2023-08-23T20:42:08.485Z,100541.38
2023-08-23T20:46:24.242Z,100549.13
2023-08-23T20:50:40.335Z,100509.31
2023-08-23T21:16:12.941Z,100557.97
2023-08-23T21:19:30.576Z,100564.00
2023-08-23T21:23:01.201Z,100564.12
2023-08-23T21:29:23.843Z,100576.34
2023-08-23T21:32:47.690Z,100545.59
2023-08-23T21:35:54.285Z,100536.13
2023-08-23T21:38:57.318Z,100583.75
2023-08-23T21:42:00.888Z,100585.31
2023-08-23T21:45:04.695Z,100588.22
2023-08-23T21:48:08.084Z,100573.50
2023-08-23T21:51:11.493Z,100583.50
2023-08-23T21:54:14.978Z,100580.22
2023-08-23T21:57:18.062Z,100573.97
2023-08-23T22:00:21.903Z,100582.38
2023-08-23T22:03:35.643Z,100583.19
2023-08-23T22:06:38.861Z,100579.19
2023-08-23T22:09:42.305Z,100575.19
2023-08-23T22:12:45.731Z,100571.22
2023-08-23T22:15:49.977Z,100573.59
2023-08-23T22:18:55.139Z,100569.59
2023-08-23T22:21:58.378Z,100563.22
2023-08-23T22:25:02.521Z,100561.84
2023-08-23T22:28:05.810Z,100554.78
2023-08-23T22:31:10.422Z,100548.91
2023-08-23T22:34:13.967Z,100553.13
2023-08-23T22:37:17.048Z,100559.31
2023-08-23T22:40:20.701Z,100550.50
2023-08-23T22:43:24.187Z,100554.59
2023-08-23T22:46:32.747Z,100551.81
2023-08-23T22:49:36.187Z,100552.75
2023-08-23T22:52:39.866Z,100551.34
2023-08-23T22:55:42.903Z,100552.06
2023-08-23T22:58:46.310Z,100559.91
2023-08-23T23:01:49.483Z,100557.78
2023-08-23T23:04:53.328Z,100563.59
2023-08-23T23:07:56.416Z,100555.28
2023-08-23T23:11:06.783Z,100554.88
2023-08-23T23:14:10.429Z,100548.59
2023-08-23T23:17:13.733Z,100565.66
2023-08-23T23:20:17.558Z,100561.50
2023-08-23T23:23:20.946Z,100554.91
2023-08-23T23:26:24.135Z,100555.06
2023-08-23T23:29:28.753Z,100563.38
2023-08-23T23:32:32.118Z,100574.19
2023-08-23T23:35:36.481Z,100566.59
2023-08-23T23:38:44.065Z,100563.44
2023-08-23T23:41:47.629Z,100567.19
2023-08-23T23:44:50.785Z,100577.50
2023-08-23T23:47:54.164Z,100575.03
2023-08-23T23:50:57.342Z,100576.22
2023-08-23T23:54:01.217Z,100569.88
2023-08-23T23:57:04.295Z,100572.22
